Time;durP1;ratioP1;P1;durP2;ratioP2;P2;SDS_P1;SDS_P2;PMS_P1;PMS_P2;Temp;Humidity;BMP_temperature;BMP_pressure;BME280_temperature;BME280_humidity;BME280_pressure;Samples;Min_cycle;Max_cycle;Signal;HPM_P1;HPM_P2
2023/05/15 00:01:15;;;;;;;6.23;5.23;;;17.10;74.40;;;;;;4954139;28;20623;-76
2023/05/15 00:03:40;;;;;;;7.93;5.10;;;17.00;75.50;;;;;;4957066;28;20594;-75
2023/05/15 00:06:06;;;;;;;6.30;5.23;;;17.00;76.30;;;;;;4958351;28;20958;-75
2023/05/15 00:08:32;;;;;;;7.00;5.70;;;16.90;76.90;;;;;;4959231;28;20168;-74
2023/05/15 00:10:58;;;;;;;8.47;5.70;;;16.90;78.20;;;;;;4958011;28;20200;-75
2023/05/15 00:13:23;;;;;;;5.63;5.13;;;16.90;80.00;;;;;;4975507;28;20171;-75
2023/05/15 00:15:49;;;;;;;6.60;5.67;;;16.80;80.70;;;;;;4975393;28;20210;-75
2023/05/15 00:18:15;;;;;;;8.10;5.60;;;16.80;81.50;;;;;;4975865;28;20234;-75
2023/05/15 00:20:41;;;;;;;7.23;6.10;;;16.80;82.50;;;;;;4973782;28;21166;-75
2023/05/15 00:23:06;;;;;;;6.10;5.50;;;16.70;83.10;;;;;;4938394;29;20669;-76
2023/05/15 00:25:32;;;;;;;7.73;5.83;;;16.70;84.30;;;;;;4956390;29;20230;-76
2023/05/15 00:27:58;;;;;;;6.30;5.67;;;16.70;85.30;;;;;;4955966;29;20641;-76
2023/05/15 00:30:23;;;;;;;9.60;6.40;;;16.60;86.50;;;;;;4938788;29;20684;-76
2023/05/15 00:32:50;;;;;;;9.07;6.70;;;16.60;87.90;;;;;;4938185;29;20301;-76
2023/05/15 00:35:16;;;;;;;7.30;5.80;;;16.50;89.40;;;;;;4939104;29;20513;-76
2023/05/15 00:37:42;;;;;;;9.50;6.60;;;16.50;90.20;;;;;;4955671;29;20575;-76
2023/05/15 00:40:16;;;;;;;7.10;6.40;;;16.50;90.70;;;;;;4955769;28;20262;-76
2023/05/15 00:42:46;;;;;;;8.93;7.27;;;16.40;91.50;;;;;;4937977;29;20592;-75
2023/05/15 00:45:12;;;;;;;10.90;7.30;;;16.40;91.90;;;;;;4955994;29;20811;-75
2023/05/15 00:47:39;;;;;;;7.93;7.13;;;16.30;92.70;;;;;;4955848;29;20583;-75
2023/05/15 00:50:07;;;;;;;8.60;7.70;;;16.30;93.10;;;;;;4938031;29;20616;-75
2023/05/15 00:52:33;;;;;;;8.47;7.67;;;16.20;93.90;;;;;;4929903;29;20666;-75
2023/05/15 00:54:59;;;;;;;10.10;8.43;;;16.20;94.50;;;;;;4953609;28;20607;-74
2023/05/15 00:57:26;;;;;;;9.90;8.37;;;16.20;95.00;;;;;;4957933;28;21165;-76
2023/05/15 00:59:55;;;;;;;12.17;9.07;;;16.10;95.90;;;;;;4957236;28;21255;-76
2023/05/15 01:02:21;;;;;;;18.43;9.10;;;16.10;96.60;;;;;;4964698;28;20671;-76
2023/05/15 01:04:48;;;;;;;13.20;10.20;;;16.10;97.10;;;;;;4955244;29;20639;-76
2023/05/15 01:07:14;;;;;;;9.00;8.20;;;16.00;97.90;;;;;;4970552;28;20575;-76
2023/05/15 01:09:45;;;;;;;9.60;8.70;;;16.00;98.60;;;;;;4954118;29;20960;-76
2023/05/15 01:12:14;;;;;;;9.83;8.50;;;16.00;99.60;;;;;;4942904;29;20656;-76
2023/05/15 01:14:40;;;;;;;11.20;9.47;;;16.00;99.90;;;;;;4919434;29;20631;-75
2023/05/15 01:17:06;;;;;;;12.07;9.80;;;15.90;99.90;;;;;;4955663;28;20648;-75
2023/05/15 01:19:34;;;;;;;9.90;8.73;;;15.90;99.90;;;;;;4954652;28;20192;-76
2023/05/15 01:22:12;;;;;;;12.50;10.30;;;15.90;99.90;;;;;;4938776;29;20599;-75
2023/05/15 01:25:18;;;;;;;12.30;10.07;;;15.80;99.90;;;;;;4956280;28;20604;-75
2023/05/15 01:27:49;;;;;;;10.53;9.47;;;15.80;99.90;;;;;;4962482;28;20603;-75
2023/05/15 01:30:27;;;;;;;10.40;9.33;;;15.80;99.90;;;;;;4948987;29;20634;-75
2023/05/15 01:33:17;;;;;;;14.60;9.63;;;15.80;99.90;;;;;;4960035;28;20640;-75
2023/05/15 01:36:06;;;;;;;10.80;9.80;;;15.80;99.90;;;;;;4958342;28;20606;-75
2023/05/15 01:38:38;;;;;;;11.20;10.10;;;15.80;99.90;;;;;;4954645;28;20636;-75
2023/05/15 01:41:14;;;;;;;10.20;9.10;;;15.70;99.90;;;;;;4968829;28;20638;-76
2023/05/15 01:43:44;;;;;;;15.30;11.17;;;15.70;99.90;;;;;;4933995;28;20677;-76
2023/05/15 01:46:14;;;;;;;13.57;11.37;;;15.80;99.90;;;;;;4964073;28;20603;-76
2023/05/15 01:48:44;;;;;;;16.50;12.50;;;15.80;99.90;;;;;;4958841;28;20579;-76
2023/05/15 01:51:13;;;;;;;17.57;11.80;;;15.80;99.90;;;;;;4957595;28;21257;-76
2023/05/15 01:53:42;;;;;;;19.30;13.57;;;15.90;99.90;;;;;;4960608;28;20624;-76
2023/05/15 01:56:11;;;;;;;20.10;14.43;;;15.90;99.90;;;;;;4936048;28;20595;-76
2023/05/15 01:58:38;;;;;;;20.03;15.10;;;16.00;99.90;;;;;;4922595;28;21002;-76
2023/05/15 02:01:08;;;;;;;22.83;15.57;;;16.00;99.90;;;;;;4946401;28;20604;-76
2023/05/15 02:03:35;;;;;;;16.57;14.77;;;16.10;99.90;;;;;;4939307;28;21166;-76
2023/05/15 02:06:04;;;;;;;22.90;16.20;;;16.20;99.90;;;;;;4967366;28;21256;-75
2023/05/15 02:08:32;;;;;;;24.73;15.97;;;16.20;99.90;;;;;;4925292;28;20673;-75
2023/05/15 02:11:02;;;;;;;23.70;17.50;;;16.30;99.90;;;;;;4939889;28;20615;-75
2023/05/15 02:13:29;;;;;;;26.73;18.10;;;16.30;99.90;;;;;;4946841;28;20707;-75
2023/05/15 02:15:55;;;;;;;24.67;17.43;;;16.40;99.90;;;;;;4951478;28;20635;-75
2023/05/15 02:18:21;;;;;;;22.97;16.90;;;16.40;99.90;;;;;;4972584;28;21002;-75
2023/05/15 02:20:46;;;;;;;34.87;20.17;;;16.50;99.90;;;;;;4953756;28;20204;-75
2023/05/15 02:23:19;;;;;;;27.50;18.60;;;16.60;99.90;;;;;;4945867;28;20268;-75
2023/05/15 02:26:11;;;;;;;29.50;19.60;;;16.60;99.90;;;;;;4953425;28;20956;-75
2023/05/15 02:29:21;;;;;;;26.30;20.47;;;16.60;99.90;;;;;;4954229;29;20648;-75
2023/05/15 02:31:58;;;;;;;23.27;16.80;;;16.70;99.90;;;;;;4893639;29;20626;-76
2023/05/15 02:34:26;;;;;;;23.50;16.97;;;16.70;99.90;;;;;;4894808;29;20626;-76
2023/05/15 02:36:56;;;;;;;21.30;16.70;;;16.70;99.90;;;;;;4930245;29;21026;-75
2023/05/15 02:39:23;;;;;;;16.57;14.80;;;16.70;99.90;;;;;;4920767;29;20620;-75
2023/05/15 02:41:51;;;;;;;22.17;15.80;;;16.80;99.90;;;;;;4951904;29;20592;-74
2023/05/15 02:44:17;;;;;;;19.77;16.13;;;16.80;99.90;;;;;;4954005;29;20583;-74
2023/05/15 02:46:44;;;;;;;17.77;14.57;;;16.80;99.90;;;;;;4952232;29;20583;-75
2023/05/15 02:49:20;;;;;;;16.83;14.07;;;16.80;99.90;;;;;;5108761;27;20777;-75
2023/05/15 02:51:46;;;;;;;23.43;15.13;;;16.80;99.90;;;;;;5107217;28;20614;-75
2023/05/15 02:54:12;;;;;;;20.73;14.53;;;16.80;99.90;;;;;;5089956;28;20960;-75
2023/05/15 02:56:38;;;;;;;19.73;17.57;;;16.80;99.90;;;;;;5108627;28;20171;-75
2023/05/15 02:59:04;;;;;;;21.20;17.47;;;16.80;99.90;;;;;;5108129;28;20634;-75
2023/05/15 03:01:30;;;;;;;16.43;14.73;;;16.80;99.90;;;;;;5107586;28;20206;-79
2023/05/15 03:03:55;;;;;;;20.13;17.37;;;16.80;99.90;;;;;;5090042;28;20615;-80
2023/05/15 03:06:21;;;;;;;21.03;16.70;;;16.80;99.90;;;;;;5107705;28;20171;-80
2023/05/15 03:08:47;;;;;;;19.20;15.80;;;16.80;99.90;;;;;;5090015;28;20256;-80
2023/05/15 03:11:13;;;;;;;22.30;16.57;;;16.80;99.90;;;;;;5107218;28;20259;-80
2023/05/15 03:13:38;;;;;;;23.90;19.93;;;16.80;99.90;;;;;;5113525;28;20277;-80
2023/05/15 03:16:04;;;;;;;21.83;18.40;;;16.80;99.90;;;;;;5108668;28;20224;-80
2023/05/15 03:18:30;;;;;;;21.87;18.23;;;16.80;99.90;;;;;;5115580;28;20240;-80
2023/05/15 03:20:56;;;;;;;21.70;19.47;;;16.80;99.90;;;;;;5120928;28;21190;-80
2023/05/15 03:23:21;;;;;;;24.33;20.20;;;16.70;99.90;;;;;;5089759;28;20179;-80
2023/05/15 03:25:47;;;;;;;22.80;19.20;;;16.70;99.90;;;;;;5106418;28;20171;-80
2023/05/15 03:28:13;;;;;;;22.70;19.20;;;16.60;99.90;;;;;;5108240;28;20210;-80
2023/05/15 03:30:39;;;;;;;22.47;20.07;;;16.60;99.90;;;;;;5089375;28;20206;-80
2023/05/15 03:33:05;;;;;;;21.83;19.27;;;16.60;99.90;;;;;;5106057;28;20585;-80
2023/05/15 03:35:34;;;;;;;27.90;22.33;;;16.50;99.90;;;;;;5118408;27;20582;-80
2023/05/15 03:38:01;;;;;;;22.90;20.30;;;16.50;99.90;;;;;;5127508;27;20584;-80
2023/05/15 03:40:26;;;;;;;25.20;21.97;;;16.50;99.90;;;;;;5128332;27;20592;-81
2023/05/15 03:42:55;;;;;;;27.07;22.37;;;16.50;99.90;;;;;;5113343;27;20594;-80
2023/05/15 03:45:21;;;;;;;25.70;22.97;;;16.40;99.90;;;;;;5104346;28;20162;-80
2023/05/15 03:47:47;;;;;;;27.23;21.87;;;16.40;99.90;;;;;;5113208;27;20632;-80
2023/05/15 03:50:13;;;;;;;25.90;21.77;;;16.40;99.90;;;;;;5119273;27;20674;-79
2023/05/15 03:52:39;;;;;;;23.63;20.40;;;16.40;99.90;;;;;;5090594;28;21164;-78
2023/05/15 03:55:05;;;;;;;27.77;22.37;;;16.40;99.90;;;;;;5077642;28;20183;-77
2023/05/15 03:57:32;;;;;;;29.73;24.47;;;16.40;99.90;;;;;;5116400;27;20592;-78
2023/05/15 03:59:58;;;;;;;29.60;23.60;;;16.40;99.90;;;;;;5091521;28;20652;-78
2023/05/15 04:02:23;;;;;;;32.10;23.83;;;16.40;99.90;;;;;;5107647;28;20660;-77
2023/05/15 04:04:50;;;;;;;26.10;23.33;;;16.40;99.90;;;;;;5100082;28;20588;-77
2023/05/15 04:07:16;;;;;;;25.70;22.50;;;16.40;99.90;;;;;;5102915;28;20186;-77
2023/05/15 04:09:42;;;;;;;28.33;22.57;;;16.40;99.90;;;;;;5103475;28;20759;-78
2023/05/15 04:12:08;;;;;;;28.80;23.53;;;16.40;99.90;;;;;;5099469;28;20705;-78
2023/05/15 04:14:34;;;;;;;27.03;23.60;;;16.40;99.90;;;;;;5098429;28;20191;-79
2023/05/15 04:16:59;;;;;;;23.63;20.07;;;16.40;99.90;;;;;;5092314;28;20164;-77
2023/05/15 04:19:25;;;;;;;28.10;23.23;;;16.40;99.90;;;;;;5091857;28;20597;-78
2023/05/15 04:21:51;;;;;;;28.53;22.80;;;16.40;99.90;;;;;;5091870;28;20440;-77
2023/05/15 04:24:16;;;;;;;27.93;23.53;;;16.40;99.90;;;;;;5093262;28;20523;-78
2023/05/15 04:26:42;;;;;;;29.83;22.90;;;16.40;99.90;;;;;;5098242;28;20168;-78
2023/05/15 04:29:08;;;;;;;26.67;21.73;;;16.40;99.90;;;;;;5093100;28;20199;-78
2023/05/15 04:31:33;;;;;;;27.27;24.27;;;16.40;99.90;;;;;;5092753;28;20179;-78
2023/05/15 04:33:59;;;;;;;26.37;21.27;;;16.40;99.90;;;;;;5093439;28;20172;-79
2023/05/15 04:36:25;;;;;;;30.90;25.43;;;16.40;99.90;;;;;;5092866;28;20168;-78
2023/05/15 04:38:51;;;;;;;27.20;24.30;;;16.40;99.90;;;;;;5093665;28;20539;-78
2023/05/15 04:41:17;;;;;;;34.13;23.70;;;16.40;99.90;;;;;;5092748;28;20199;-78
2023/05/15 04:43:43;;;;;;;27.93;22.07;;;16.40;99.90;;;;;;5093035;28;20201;-78
2023/05/15 04:46:08;;;;;;;28.30;22.20;;;16.40;99.90;;;;;;5091424;28;20581;-77
2023/05/15 04:48:34;;;;;;;29.90;25.70;;;16.40;99.90;;;;;;5092935;28;20199;-78
2023/05/15 04:51:00;;;;;;;30.80;24.60;;;16.40;99.90;;;;;;5088563;28;20184;-78
2023/05/15 04:53:29;;;;;;;33.13;26.10;;;16.40;99.90;;;;;;5080513;28;20257;-78
2023/05/15 04:55:57;;;;;;;34.50;28.23;;;16.40;99.90;;;;;;5085248;28;21149;-78
2023/05/15 04:58:23;;;;;;;31.43;27.50;;;16.30;99.90;;;;;;5072580;28;20589;-78
2023/05/15 05:00:49;;;;;;;33.60;28.20;;;16.30;99.90;;;;;;5084103;28;20226;-78
2023/05/15 05:03:15;;;;;;;41.73;28.53;;;16.30;99.90;;;;;;5093841;28;20184;-77
2023/05/15 05:05:40;;;;;;;33.53;27.77;;;16.30;99.90;;;;;;5094336;28;20175;-78
2023/05/15 05:08:06;;;;;;;34.33;29.37;;;16.30;99.90;;;;;;5093717;28;20244;-76
2023/05/15 05:10:32;;;;;;;41.53;31.53;;;16.30;99.90;;;;;;5098500;28;20202;-76
2023/05/15 05:12:57;;;;;;;35.57;29.50;;;16.30;99.90;;;;;;5106781;28;20171;-77
2023/05/15 05:15:23;;;;;;;39.53;31.27;;;16.30;99.90;;;;;;5116298;28;20167;-77
2023/05/15 05:17:49;;;;;;;37.80;29.43;;;16.30;99.90;;;;;;5112912;28;20200;-77
2023/05/15 05:20:15;;;;;;;36.67;30.13;;;16.30;99.90;;;;;;5111462;28;20195;-76
2023/05/15 05:22:41;;;;;;;36.90;31.63;;;16.30;99.90;;;;;;5095194;28;20207;-77
2023/05/15 05:25:07;;;;;;;38.73;32.27;;;16.30;99.90;;;;;;5091643;28;20562;-77
2023/05/15 05:27:32;;;;;;;36.20;29.40;;;16.30;99.90;;;;;;5092429;28;20609;-77
2023/05/15 05:29:59;;;;;;;36.23;30.73;;;16.40;99.90;;;;;;5092481;28;20589;-77
2023/05/15 05:32:25;;;;;;;36.10;29.17;;;16.40;99.90;;;;;;5092368;28;20168;-77
2023/05/15 05:34:50;;;;;;;36.10;26.53;;;16.40;99.90;;;;;;5091978;28;20631;-77
2023/05/15 05:37:19;;;;;;;29.70;25.30;;;16.40;99.90;;;;;;5092491;28;20612;-77
2023/05/15 05:39:45;;;;;;;25.83;22.97;;;16.50;99.90;;;;;;5094787;28;20196;-77
2023/05/15 05:42:11;;;;;;;31.37;23.27;;;16.50;99.90;;;;;;5094248;28;20585;-78
2023/05/15 05:44:37;;;;;;;27.10;23.20;;;16.50;99.90;;;;;;5092840;28;20589;-78
2023/05/15 05:47:03;;;;;;;21.63;19.17;;;16.50;99.90;;;;;;5090624;28;20647;-77
2023/05/15 05:49:28;;;;;;;22.53;19.90;;;16.60;99.90;;;;;;5091103;28;20199;-77
2023/05/15 05:51:54;;;;;;;23.50;20.10;;;16.60;99.90;;;;;;5091647;28;20669;-78
2023/05/15 05:54:20;;;;;;;19.93;16.47;;;16.60;99.90;;;;;;5095478;28;20172;-77
2023/05/15 05:56:46;;;;;;;19.43;17.33;;;16.60;99.90;;;;;;5078623;28;20179;-77
2023/05/15 05:59:12;;;;;;;18.67;16.63;;;16.60;99.90;;;;;;5097773;28;20566;-79
2023/05/15 06:01:38;;;;;;;20.30;18.20;;;16.70;99.90;;;;;;5102323;28;20565;-78
2023/05/15 06:04:04;;;;;;;18.37;15.37;;;16.60;99.90;;;;;;5097784;28;20190;-77
2023/05/15 06:06:29;;;;;;;19.70;17.70;;;16.70;99.90;;;;;;5104395;28;20186;-78
2023/05/15 06:08:55;;;;;;;22.00;18.93;;;16.70;99.90;;;;;;5106363;28;20647;-78
2023/05/15 06:11:21;;;;;;;19.57;17.47;;;16.70;99.90;;;;;;5082479;28;20733;-78
2023/05/15 06:13:46;;;;;;;20.50;18.40;;;16.70;99.90;;;;;;5071090;28;20195;-78
2023/05/15 06:16:12;;;;;;;20.27;18.27;;;16.70;99.90;;;;;;5071534;28;20593;-79
2023/05/15 06:18:38;;;;;;;21.10;18.50;;;16.80;99.90;;;;;;5075313;28;20185;-76
2023/05/15 06:21:03;;;;;;;22.67;19.40;;;16.80;99.90;;;;;;5075056;28;21036;-77
2023/05/15 06:23:29;;;;;;;20.50;18.07;;;16.80;99.90;;;;;;5090352;28;20218;-77
2023/05/15 06:25:55;;;;;;;22.07;19.67;;;16.80;99.90;;;;;;5090047;28;20168;-77
2023/05/15 06:28:21;;;;;;;22.53;20.13;;;16.80;99.90;;;;;;5091490;28;20324;-77
2023/05/15 06:30:47;;;;;;;22.93;20.40;;;16.80;99.90;;;;;;5091342;28;20641;-77
2023/05/15 06:33:12;;;;;;;24.03;19.80;;;16.80;99.90;;;;;;5094030;28;20172;-78
2023/05/15 06:35:38;;;;;;;24.00;20.67;;;16.80;99.90;;;;;;5075345;28;20590;-78
2023/05/15 06:38:04;;;;;;;24.27;21.00;;;16.80;99.90;;;;;;5077866;28;20187;-77
2023/05/15 06:40:30;;;;;;;22.47;20.07;;;16.80;99.90;;;;;;5073351;28;20656;-78
2023/05/15 06:42:56;;;;;;;22.10;19.73;;;16.80;99.90;;;;;;5091726;28;20592;-79
2023/05/15 06:45:21;;;;;;;23.87;21.60;;;16.80;99.90;;;;;;5089525;28;20215;-78
2023/05/15 06:47:47;;;;;;;25.57;22.97;;;16.80;99.90;;;;;;5089607;28;20199;-77
2023/05/15 06:50:13;;;;;;;21.80;19.60;;;16.70;99.90;;;;;;5090504;28;20275;-76
2023/05/15 06:52:38;;;;;;;30.47;24.17;;;16.70;99.90;;;;;;5090523;28;20590;-76
2023/05/15 06:55:04;;;;;;;28.47;23.83;;;16.70;99.90;;;;;;5078432;28;20531;-77
2023/05/15 06:57:30;;;;;;;29.33;23.53;;;16.70;99.90;;;;;;5089512;28;20167;-77
2023/05/15 06:59:56;;;;;;;27.10;23.03;;;16.70;99.90;;;;;;5089103;28;20608;-77
2023/05/15 07:02:22;;;;;;;26.90;24.10;;;16.80;99.90;;;;;;5089268;28;20187;-77
2023/05/15 07:04:47;;;;;;;25.60;22.20;;;16.80;99.90;;;;;;5101275;28;20175;-77
2023/05/15 07:07:13;;;;;;;26.60;23.87;;;16.80;99.90;;;;;;5074401;28;20175;-77
2023/05/15 07:09:39;;;;;;;29.50;24.60;;;16.90;99.90;;;;;;5108522;28;20194;-76
2023/05/15 07:12:05;;;;;;;29.60;26.07;;;16.90;99.90;;;;;;5107872;28;20657;-76
2023/05/15 07:14:30;;;;;;;31.80;28.40;;;16.90;99.90;;;;;;5111035;28;20174;-77
2023/05/15 07:16:57;;;;;;;33.03;28.40;;;16.90;99.90;;;;;;5110608;28;20601;-77
2023/05/15 07:19:22;;;;;;;35.33;29.47;;;16.80;99.90;;;;;;5109759;28;20613;-76
2023/05/15 07:21:48;;;;;;;31.03;26.07;;;16.80;99.90;;;;;;5098988;28;20172;-77
2023/05/15 07:24:14;;;;;;;33.83;26.50;;;16.80;99.90;;;;;;5089073;28;20225;-77
2023/05/15 07:26:40;;;;;;;33.27;26.47;;;16.80;99.90;;;;;;5089328;28;20179;-76
2023/05/15 07:29:05;;;;;;;30.10;26.87;;;16.80;99.90;;;;;;5088898;28;20235;-76
2023/05/15 07:31:32;;;;;;;28.67;25.67;;;16.70;99.90;;;;;;5095662;28;20210;-77
2023/05/15 07:33:58;;;;;;;33.47;26.43;;;16.70;99.90;;;;;;5089428;28;20182;-77
2023/05/15 07:36:24;;;;;;;30.30;27.07;;;16.70;99.90;;;;;;5094334;28;20996;-77
2023/05/15 07:38:49;;;;;;;31.33;25.37;;;16.60;99.90;;;;;;5092848;28;20664;-77
2023/05/15 07:41:15;;;;;;;28.40;25.40;;;16.60;99.90;;;;;;5094280;28;20714;-78
2023/05/15 07:43:41;;;;;;;26.67;23.87;;;16.70;99.90;;;;;;5075591;28;20271;-77
2023/05/15 07:46:06;;;;;;;31.17;24.47;;;16.70;99.90;;;;;;5098490;28;20176;-77
2023/05/15 07:48:32;;;;;;;25.47;22.27;;;16.60;99.90;;;;;;5094208;28;20200;-77
2023/05/15 07:50:58;;;;;;;26.70;23.90;;;16.70;99.90;;;;;;5092147;28;20191;-77
2023/05/15 07:53:23;;;;;;;26.30;22.13;;;16.70;99.90;;;;;;5092691;28;20194;-77
2023/05/15 07:55:49;;;;;;;25.60;22.90;;;16.80;99.90;;;;;;5092508;28;20734;-79
2023/05/15 07:58:16;;;;;;;29.40;25.33;;;16.80;99.90;;;;;;5093107;28;20178;-81
2023/05/15 08:00:42;;;;;;;26.30;23.60;;;16.90;99.90;;;;;;5103464;28;20568;-80
2023/05/15 08:03:08;;;;;;;29.53;24.47;;;16.90;99.90;;;;;;5093270;28;20585;-81
2023/05/15 08:05:36;;;;;;;25.63;22.93;;;17.00;99.90;;;;;;5113426;28;20952;-80
2023/05/15 08:08:02;;;;;;;28.63;24.50;;;17.10;99.90;;;;;;5101881;28;20549;-80
2023/05/15 08:10:28;;;;;;;30.47;24.80;;;17.10;99.90;;;;;;5114435;28;20603;-78
2023/05/15 08:12:53;;;;;;;27.57;24.67;;;17.10;99.90;;;;;;5112572;28;20694;-79
2023/05/15 08:15:19;;;;;;;29.40;25.50;;;17.20;99.90;;;;;;5114283;28;20167;-79
2023/05/15 08:17:45;;;;;;;29.00;24.23;;;17.20;99.90;;;;;;5112725;28;20167;-79
2023/05/15 08:20:11;;;;;;;27.53;24.47;;;17.20;99.90;;;;;;5114056;28;20187;-79
2023/05/15 08:22:37;;;;;;;24.97;22.40;;;17.20;99.90;;;;;;5095265;28;20168;-78
2023/05/15 08:25:04;;;;;;;26.70;22.13;;;17.20;99.90;;;;;;5075606;28;21054;-79
2023/05/15 08:27:30;;;;;;;29.40;24.47;;;17.20;99.90;;;;;;5094126;28;20195;-79
2023/05/15 08:29:55;;;;;;;25.57;22.20;;;17.20;99.90;;;;;;5094690;28;20631;-78
2023/05/15 08:32:21;;;;;;;28.13;25.23;;;17.30;99.90;;;;;;5074997;28;20198;-78
2023/05/15 08:34:47;;;;;;;27.97;24.97;;;17.30;99.90;;;;;;5093755;28;20164;-78
2023/05/15 08:37:13;;;;;;;30.90;24.10;;;17.40;99.90;;;;;;5058585;28;20195;-77
2023/05/15 08:39:39;;;;;;;25.10;22.37;;;17.40;99.90;;;;;;5091394;28;20286;-78
2023/05/15 08:42:18;;;;;;;29.03;24.87;;;17.50;99.90;;;;;;5074570;28;21013;-78
2023/05/15 08:44:44;;;;;;;26.13;23.50;;;17.50;99.90;;;;;;5095675;28;20171;-78
2023/05/15 08:47:10;;;;;;;24.40;21.80;;;17.50;99.90;;;;;;5075364;28;20590;-78
2023/05/15 08:50:02;;;;;;;26.70;19.93;;;17.60;99.90;;;;;;5084008;28;20658;-77
2023/05/15 08:52:28;;;;;;;21.53;19.37;;;17.60;99.90;;;;;;5073696;28;20176;-76
2023/05/15 08:54:55;;;;;;;22.23;19.50;;;17.70;99.90;;;;;;5071595;28;20644;-78
2023/05/15 08:57:21;;;;;;;25.27;20.63;;;17.90;99.90;;;;;;5101459;28;21168;-77
2023/05/15 08:59:48;;;;;;;21.70;19.60;;;18.00;99.90;;;;;;5113586;28;20600;-77
2023/05/15 09:02:15;;;;;;;23.93;19.70;;;18.30;99.90;;;;;;5113916;28;20585;-77
2023/05/15 09:04:41;;;;;;;20.03;18.10;;;19.10;99.90;;;;;;5095342;28;20619;-77
2023/05/15 09:07:09;;;;;;;18.40;16.50;;;20.00;99.90;;;;;;5080515;28;20621;-77
2023/05/15 09:09:35;;;;;;;14.40;12.90;;;21.10;99.90;;;;;;5092024;28;20221;-77
2023/05/15 09:12:02;;;;;;;18.17;16.10;;;22.20;99.90;;;;;;5091265;28;20702;-77
2023/05/15 09:14:28;;;;;;;17.10;14.10;;;23.40;99.90;;;;;;5092240;28;20570;-77
2023/05/15 09:16:54;;;;;;;14.63;13.20;;;24.50;99.90;;;;;;5091958;28;20896;-77
2023/05/15 09:19:21;;;;;;;12.20;11.07;;;25.50;99.90;;;;;;5092594;28;20704;-77
2023/05/15 09:21:47;;;;;;;14.83;13.43;;;26.50;99.90;;;;;;5084933;28;20183;-77
2023/05/15 09:24:23;;;;;;;13.87;12.57;;;27.20;99.90;;;;;;5095552;28;20635;-77
2023/05/15 09:27:03;;;;;;;12.37;11.17;;;27.90;99.90;;;;;;5117945;22;20595;-76
2023/05/15 09:29:37;;;;;;;12.93;11.73;;;28.70;99.90;;;;;;5051581;28;20591;-75
2023/05/15 09:32:05;;;;;;;12.27;11.07;;;29.40;99.90;;;;;;5032728;28;20614;-75
2023/05/15 09:34:33;;;;;;;12.90;11.77;;;29.80;99.90;;;;;;5051966;28;20894;-75
2023/05/15 09:37:01;;;;;;;14.37;12.57;;;30.20;99.90;;;;;;5054356;28;20707;-75
2023/05/15 09:39:26;;;;;;;12.30;11.07;;;30.50;98.80;;;;;;5071044;28;20647;-75
2023/05/15 09:41:53;;;;;;;12.37;10.87;;;30.80;97.90;;;;;;5055962;28;20591;-75
2023/05/15 09:44:26;;;;;;;10.87;9.77;;;31.20;97.20;;;;;;5067015;28;20168;-75
2023/05/15 09:46:52;;;;;;;11.00;10.10;;;31.70;94.90;;;;;;5069020;28;20837;-74
2023/05/15 09:49:21;;;;;;;11.60;10.50;;;32.10;94.90;;;;;;5054947;28;20721;-75
2023/05/15 09:51:49;;;;;;;14.80;10.70;;;32.50;92.80;;;;;;5052175;28;20182;-75
2023/05/15 09:54:17;;;;;;;10.40;9.37;;;32.80;91.70;;;;;;5060394;28;20585;-75
2023/05/15 09:56:44;;;;;;;9.67;8.87;;;33.00;89.10;;;;;;5059263;28;20621;-75
2023/05/15 09:59:14;;;;;;;7.87;7.17;;;33.00;83.90;;;;;;5073238;28;21110;-75
2023/05/15 10:01:43;;;;;;;9.00;8.20;;;33.00;80.60;;;;;;5046319;28;20609;-75
2023/05/15 10:04:10;;;;;;;10.03;9.23;;;32.80;78.80;;;;;;5061854;28;20607;-75
2023/05/15 10:06:46;;;;;;;10.30;9.30;;;32.60;76.80;;;;;;5049325;28;20588;-75
2023/05/15 10:09:13;;;;;;;9.50;8.60;;;32.40;74.40;;;;;;5049832;28;21077;-75
2023/05/15 10:11:44;;;;;;;10.43;9.43;;;32.30;75.90;;;;;;5050268;28;20573;-75
2023/05/15 10:14:12;;;;;;;9.90;9.10;;;32.30;74.10;;;;;;5049926;28;20575;-75
2023/05/15 10:16:39;;;;;;;10.77;9.83;;;32.20;73.50;;;;;;5050934;28;20587;-75
2023/05/15 10:19:10;;;;;;;9.87;8.93;;;32.00;71.80;;;;;;5049527;28;20596;-75
2023/05/15 10:21:39;;;;;;;11.80;8.23;;;32.00;70.80;;;;;;5040285;28;20603;-75
2023/05/15 10:24:05;;;;;;;8.77;8.07;;;32.00;71.40;;;;;;5070575;28;20949;-75
2023/05/15 10:26:41;;;;;;;10.30;9.43;;;32.10;72.10;;;;;;5069793;28;20590;-75
2023/05/15 10:29:19;;;;;;;8.37;7.53;;;32.40;70.40;;;;;;5069269;28;20629;-74
2023/05/15 10:31:47;;;;;;;8.30;7.50;;;32.60;68.90;;;;;;5052699;28;21084;-75
2023/05/15 10:34:13;;;;;;;7.60;6.90;;;32.60;66.60;;;;;;5070309;28;20574;-75
2023/05/15 10:36:41;;;;;;;10.23;9.43;;;32.40;65.20;;;;;;5070901;28;21169;-75
2023/05/15 10:39:07;;;;;;;9.47;8.57;;;32.20;63.40;;;;;;5052863;28;20607;-75
2023/05/15 10:41:36;;;;;;;9.27;8.50;;;32.20;64.00;;;;;;5088870;28;20596;-75
2023/05/15 10:44:02;;;;;;;9.23;8.40;;;32.10;63.50;;;;;;5072699;28;20653;-75
2023/05/15 10:46:30;;;;;;;9.93;9.03;;;31.90;62.20;;;;;;5090172;28;20607;-75
2023/05/15 10:48:57;;;;;;;9.50;8.63;;;31.70;61.90;;;;;;5054657;28;20681;-75
2023/05/15 10:51:28;;;;;;;8.17;7.37;;;31.60;61.70;;;;;;5070409;28;20696;-75
2023/05/15 10:53:55;;;;;;;12.97;6.97;;;31.50;59.80;;;;;;5070886;28;20575;-75
2023/05/15 10:56:36;;;;;;;11.70;7.67;;;31.30;59.90;;;;;;5069458;28;20997;-75
2023/05/15 10:59:09;;;;;;;7.90;7.20;;;31.20;58.30;;;;;;5069161;28;20635;-75
2023/05/15 11:01:39;;;;;;;8.97;7.10;;;31.00;58.00;;;;;;5069007;28;20586;-75
2023/05/15 11:04:13;;;;;;;8.07;7.23;;;30.70;57.00;;;;;;5035358;28;20591;-75
2023/05/15 11:06:42;;;;;;;7.20;5.90;;;30.60;57.50;;;;;;5068947;28;20938;-75
2023/05/15 11:09:23;;;;;;;7.77;6.90;;;30.50;57.80;;;;;;5052466;28;20636;-75
2023/05/15 11:11:56;;;;;;;8.57;7.80;;;30.60;58.20;;;;;;5056234;28;20636;-74
2023/05/15 11:14:50;;;;;;;9.73;8.00;;;30.60;55.60;;;;;;5056051;28;20583;-75
2023/05/15 11:17:17;;;;;;;8.07;7.27;;;30.60;56.90;;;;;;5073179;28;20620;-75
2023/05/15 11:19:48;;;;;;;7.27;6.57;;;30.60;57.20;;;;;;5074095;28;20629;-75
2023/05/15 11:22:15;;;;;;;8.10;7.40;;;30.70;57.50;;;;;;5066021;28;20669;-75
2023/05/15 11:25:00;;;;;;;8.27;7.40;;;30.70;57.20;;;;;;5054426;28;20574;-74
2023/05/15 11:27:32;;;;;;;7.47;6.77;;;30.70;56.50;;;;;;5035927;28;20776;-75
2023/05/15 11:30:07;;;;;;;9.33;6.50;;;30.70;56.30;;;;;;5061401;28;20609;-75
2023/05/15 11:32:45;;;;;;;8.00;6.60;;;30.70;56.30;;;;;;5072066;28;20586;-75
2023/05/15 11:35:22;;;;;;;7.60;5.57;;;30.70;55.40;;;;;;5074321;28;20574;-76
2023/05/15 11:38:00;;;;;;;5.90;5.30;;;30.60;54.60;;;;;;5073497;28;20613;-75
2023/05/15 11:40:31;;;;;;;6.93;5.83;;;30.50;54.70;;;;;;5072728;28;21132;-75
2023/05/15 11:43:16;;;;;;;6.57;5.70;;;30.50;55.00;;;;;;5072129;28;20593;-75
2023/05/15 11:45:44;;;;;;;6.67;6.07;;;30.50;54.70;;;;;;5075798;28;20590;-74
2023/05/15 11:48:14;;;;;;;6.30;5.70;;;30.50;54.20;;;;;;5054494;28;21012;-75
2023/05/15 11:50:41;;;;;;;4.60;3.97;;;30.30;52.80;;;;;;5054768;28;20587;-75
2023/05/15 11:53:08;;;;;;;5.13;4.07;;;30.10;52.30;;;;;;5052422;28;20606;-76
2023/05/15 11:55:36;;;;;;;6.47;5.90;;;29.90;51.10;;;;;;5035687;28;20588;-75
2023/05/15 11:58:03;;;;;;;6.30;5.67;;;29.80;51.00;;;;;;5052655;28;20700;-75
2023/05/15 12:00:29;;;;;;;6.37;5.70;;;29.70;51.40;;;;;;5051972;28;20700;-76
2023/05/15 12:02:56;;;;;;;4.47;4.03;;;29.50;51.00;;;;;;5053359;28;20580;-75
2023/05/15 12:05:22;;;;;;;4.43;4.03;;;29.30;51.40;;;;;;5018993;28;20575;-76
2023/05/15 12:07:49;;;;;;;4.93;4.17;;;29.20;50.80;;;;;;5052237;28;20619;-75
2023/05/15 12:10:15;;;;;;;5.17;4.40;;;29.10;50.90;;;;;;5053735;28;21295;-75
2023/05/15 12:12:47;;;;;;;6.13;4.90;;;28.90;50.30;;;;;;5034688;28;20605;-75
2023/05/15 12:15:15;;;;;;;6.10;4.90;;;28.80;50.50;;;;;;5052355;28;20614;-75
2023/05/15 12:17:42;;;;;;;5.53;5.00;;;28.60;50.20;;;;;;5072823;28;20630;-76
2023/05/15 12:20:16;;;;;;;7.27;5.80;;;28.50;50.20;;;;;;5071811;28;20578;-76
2023/05/15 12:22:41;;;;;;;6.20;5.60;;;28.30;50.00;;;;;;5060912;28;21235;-76
2023/05/15 12:25:10;;;;;;;5.80;5.20;;;28.20;50.40;;;;;;5052325;28;20696;-77
2023/05/15 12:27:37;;;;;;;6.60;6.00;;;28.00;49.90;;;;;;5051304;28;20254;-76
2023/05/15 12:30:04;;;;;;;7.37;6.53;;;27.80;50.30;;;;;;5035266;28;20587;-76
2023/05/15 12:32:32;;;;;;;7.40;6.70;;;27.60;50.60;;;;;;5051858;28;20592;-76
2023/05/15 12:34:58;;;;;;;6.47;5.87;;;27.40;51.00;;;;;;5051224;28;20958;-76
2023/05/15 12:37:24;;;;;;;7.23;6.53;;;27.30;51.20;;;;;;5065500;28;21242;-76